Llanharan, United Kingdom
Current Conditions -  °F | °C
As of 1:50 AM on Saturday 20 Dec 2014 (Local Time) from EGDX Reporting Station
Broken Clouds Broken Clouds  
Wind Chill: 42°   Ceiling: 2900
Heat Index: 48°   Visibility: 6mi
Dew Point: 39°   Wind: 16mph
Humidity: 71%   Direction: 290°WNW
Pressure: 30.24"   Gusts: NA
Location:  51.54°N, 3.44°W
Report Text: EGDX 200150Z AUTO 29014KT 9999 BKN029/// 09/04 Q1024
Loading
Personal Weather Stations






























Interactive Weather Map New forecast layout! Learn more

10-Day Weather Forecast

Advertisements
Track Severe Weather on mobile